Time;durP1;ratioP1;P1;durP2;ratioP2;P2;SDS_P1;SDS_P2;PMS_P1;PMS_P2;Temp;Humidity;BMP_temperature;BMP_pressure;BME280_temperature;BME280_humidity;BME280_pressure;Samples;Min_cycle;Max_cycle;Signal;HPM_P1;HPM_P2
2023/07/12 00:00:16;;;;;;;1999.90;999.90;;;20.40;99.90;;;;;;5120259;27;20051;-73
2023/07/12 00:02:42;;;;;;;1999.90;999.90;;;20.40;99.90;;;;;;5155599;27;20049;-73
2023/07/12 00:05:08;;;;;;;1999.90;999.90;;;20.40;99.90;;;;;;5155174;27;20487;-73
2023/07/12 00:07:34;;;;;;;1999.90;999.90;;;20.40;99.90;;;;;;5155225;27;20390;-74
2023/07/12 00:10:00;;;;;;;1999.90;999.90;;;20.40;99.90;;;;;;5137673;27;20042;-74
2023/07/12 00:12:26;;;;;;;1999.90;999.90;;;20.30;99.90;;;;;;5155217;27;20383;-73
2023/07/12 00:14:52;;;;;;;1999.90;999.90;;;20.30;99.90;;;;;;5136549;27;20390;-73
2023/07/12 00:17:18;;;;;;;1999.90;999.90;;;20.20;99.90;;;;;;5155610;27;20042;-74
2023/07/12 00:19:44;;;;;;;1999.90;999.90;;;20.20;99.90;;;;;;5136801;27;20114;-73
2023/07/12 00:22:10;;;;;;;1999.90;999.90;;;20.10;99.90;;;;;;5155123;27;20385;-74
2023/07/12 00:24:36;;;;;;;1999.90;999.90;;;20.10;99.90;;;;;;5155031;27;20045;-74
2023/07/12 00:27:01;;;;;;;1999.90;999.90;;;20.10;99.90;;;;;;5155087;27;20045;-73
2023/07/12 00:29:27;;;;;;;1999.90;999.90;;;20.10;99.90;;;;;;5137058;27;20045;-74
2023/07/12 00:31:53;;;;;;;1999.90;999.90;;;20.10;99.90;;;;;;5136772;27;20111;-75
2023/07/12 00:34:19;;;;;;;1999.90;999.90;;;20.10;99.90;;;;;;5119203;27;20050;-74
2023/07/12 00:36:45;;;;;;;1999.90;999.90;;;20.00;99.90;;;;;;5155343;27;20047;-74
2023/07/12 00:39:12;;;;;;;1999.90;999.90;;;20.00;99.90;;;;;;5155737;27;20130;-75
2023/07/12 00:42:05;;;;;;;1999.90;999.90;;;20.00;99.90;;;;;;5155436;27;20042;-74
2023/07/12 00:44:42;;;;;;;1999.90;999.90;;;20.00;99.90;;;;;;5154915;27;20092;-74
2023/07/12 00:47:11;;;;;;;1999.90;999.90;;;20.00;99.90;;;;;;5154838;27;20042;-74
2023/07/12 00:49:37;;;;;;;1999.90;999.90;;;20.00;99.90;;;;;;5154892;27;20051;-74
2023/07/12 00:52:15;;;;;;;1999.90;999.90;;;20.00;99.90;;;;;;5154764;27;20039;-74
2023/07/12 00:54:54;;;;;;;1999.90;999.90;;;20.00;99.90;;;;;;5155593;27;20038;-73
2023/07/12 00:57:28;;;;;;;1999.90;999.90;;;19.90;99.90;;;;;;5136820;27;20439;-73
2023/07/12 00:59:58;;;;;;;1999.90;999.90;;;19.90;99.90;;;;;;5137385;27;20455;-73
2023/07/12 01:02:24;;;;;;;1999.90;999.90;;;19.90;99.90;;;;;;5155056;27;20121;-73
2023/07/12 01:04:52;;;;;;;1999.90;999.90;;;19.80;99.90;;;;;;5157486;27;20122;-74
2023/07/12 01:07:21;;;;;;;1999.90;999.90;;;19.80;99.90;;;;;;5158423;27;20083;-74
2023/07/12 01:09:46;;;;;;;1999.90;999.90;;;19.80;99.90;;;;;;5158400;27;20085;-72
2023/07/12 01:12:13;;;;;;;1999.90;999.90;;;19.80;99.90;;;;;;5158957;27;20378;-73
2023/07/12 01:14:40;;;;;;;1999.90;999.90;;;19.70;99.90;;;;;;5157978;27;20039;-73
2023/07/12 01:17:07;;;;;;;1999.90;999.90;;;19.70;99.90;;;;;;5105945;27;20061;-74
2023/07/12 01:19:35;;;;;;;1999.90;999.90;;;19.70;99.90;;;;;;5158246;27;20057;-74
2023/07/12 01:22:02;;;;;;;1999.90;999.90;;;19.70;99.90;;;;;;5158501;27;20043;-74
2023/07/12 01:24:31;;;;;;;1999.90;999.90;;;19.60;99.90;;;;;;5158152;27;20034;-74
2023/07/12 01:27:00;;;;;;;1999.90;999.90;;;19.60;99.90;;;;;;5139646;27;20409;-74
2023/07/12 01:29:26;;;;;;;1999.90;999.90;;;19.60;99.90;;;;;;5158340;27;20046;-74
2023/07/12 01:31:52;;;;;;;1999.90;999.90;;;19.60;99.90;;;;;;5139568;27;20046;-74
2023/07/12 01:34:19;;;;;;;1999.90;999.90;;;19.60;99.90;;;;;;5139338;27;20066;-73
2023/07/12 01:36:45;;;;;;;1999.90;999.90;;;19.50;99.90;;;;;;5157968;27;20091;-73
2023/07/12 01:39:11;;;;;;;1999.90;999.90;;;19.50;99.90;;;;;;5139387;27;20498;-74
2023/07/12 01:41:38;;;;;;;1999.90;999.90;;;19.50;99.90;;;;;;5157757;27;20047;-74
2023/07/12 01:44:04;;;;;;;1999.90;999.90;;;19.50;99.90;;;;;;5157698;27;20042;-74
2023/07/12 01:46:30;;;;;;;1999.90;999.90;;;19.50;99.90;;;;;;5157665;27;20085;-75
2023/07/12 01:48:56;;;;;;;1999.90;999.90;;;19.50;99.90;;;;;;5157972;27;20064;-74
2023/07/12 01:51:23;;;;;;;1999.90;999.90;;;19.50;99.90;;;;;;5157671;27;20074;-73
2023/07/12 01:53:49;;;;;;;1999.90;999.90;;;19.50;99.90;;;;;;5157510;27;20100;-74
2023/07/12 01:56:16;;;;;;;1999.90;999.90;;;19.40;99.90;;;;;;5122148;27;20467;-74
2023/07/12 01:58:42;;;;;;;1999.90;999.90;;;19.50;99.90;;;;;;5139196;27;20447;-74
2023/07/12 02:01:08;;;;;;;1999.90;999.90;;;19.40;99.90;;;;;;5157984;27;20081;-73
2023/07/12 02:03:34;;;;;;;1999.90;999.90;;;19.40;99.90;;;;;;5121963;27;20429;-73
2023/07/12 02:06:00;;;;;;;1999.90;999.90;;;19.40;99.90;;;;;;5138476;27;20099;-73
2023/07/12 02:08:26;;;;;;;1999.90;999.90;;;19.40;99.90;;;;;;5157243;27;20046;-73
2023/07/12 02:10:51;;;;;;;1999.90;999.90;;;19.40;99.90;;;;;;5156947;27;20039;-73
2023/07/12 02:13:19;;;;;;;1999.90;999.90;;;19.40;99.90;;;;;;5138588;27;20120;-74
2023/07/12 02:15:45;;;;;;;1999.90;999.90;;;19.40;99.90;;;;;;5157023;27;20121;-73
2023/07/12 02:18:12;;;;;;;1999.90;999.90;;;19.30;99.90;;;;;;5138638;27;20130;-73
2023/07/12 02:20:39;;;;;;;1999.90;999.90;;;19.30;99.90;;;;;;5156980;27;20039;-73
2023/07/12 02:23:05;;;;;;;1999.90;999.90;;;19.20;99.90;;;;;;5157764;27;20177;-74
2023/07/12 02:25:31;;;;;;;1999.90;999.90;;;19.20;99.90;;;;;;5138461;27;20042;-73
2023/07/12 02:27:56;;;;;;;1999.90;999.90;;;19.20;99.90;;;;;;5157387;27;20083;-73
2023/07/12 02:30:25;;;;;;;1999.90;999.90;;;19.20;99.90;;;;;;5138576;27;20115;-74
2023/07/12 02:32:51;;;;;;;1999.90;999.90;;;19.20;99.90;;;;;;5157256;27;20150;-73
2023/07/12 02:35:18;;;;;;;1999.90;999.90;;;19.20;99.90;;;;;;5137984;27;20351;-73
2023/07/12 02:37:44;;;;;;;1999.90;999.90;;;19.10;99.90;;;;;;5121330;27;20053;-73
2023/07/12 02:40:11;;;;;;;1999.90;999.90;;;19.10;99.90;;;;;;5156807;27;20047;-74
2023/07/12 02:42:37;;;;;;;1999.90;999.90;;;19.10;99.90;;;;;;5156536;27;20051;-73
2023/07/12 02:45:03;;;;;;;1999.90;999.90;;;19.10;99.90;;;;;;5156549;27;20037;-73
2023/07/12 02:47:29;;;;;;;1999.90;999.90;;;19.10;99.90;;;;;;5138077;27;20047;-72
2023/07/12 02:49:54;;;;;;;1999.90;999.90;;;19.00;99.90;;;;;;5137634;27;20092;-74
2023/07/12 02:52:20;;;;;;;1999.90;999.90;;;19.00;99.90;;;;;;5156128;27;20058;-73
2023/07/12 02:54:46;;;;;;;1999.90;999.90;;;18.90;99.90;;;;;;5156328;27;20147;-73
2023/07/12 02:57:13;;;;;;;1999.90;999.90;;;18.90;99.90;;;;;;5156261;27;20466;-72
2023/07/12 02:59:39;;;;;;;1999.90;999.90;;;18.80;99.90;;;;;;5156287;27;20053;-74
2023/07/12 03:02:07;;;;;;;1999.90;999.90;;;18.80;99.90;;;;;;5156201;27;20047;-74
2023/07/12 03:04:34;;;;;;;1999.90;999.90;;;18.80;99.90;;;;;;5156178;27;20042;-74
2023/07/12 03:06:59;;;;;;;1999.90;999.90;;;18.70;99.90;;;;;;5138675;27;20089;-75
2023/07/12 03:09:25;;;;;;;1999.90;999.90;;;18.70;99.90;;;;;;5156676;27;20078;-74
2023/07/12 03:11:51;;;;;;;1999.90;999.90;;;18.70;99.90;;;;;;5156007;27;20042;-74
2023/07/12 03:14:18;;;;;;;1999.90;999.90;;;18.80;99.90;;;;;;5155909;27;20050;-75
2023/07/12 03:16:45;;;;;;;1999.90;999.90;;;18.70;99.90;;;;;;5138451;27;20085;-73
2023/07/12 03:19:11;;;;;;;1999.90;999.90;;;18.70;99.90;;;;;;5155915;27;20046;-73
2023/07/12 03:21:37;;;;;;;1999.90;999.90;;;18.70;99.90;;;;;;5155811;27;20082;-74
2023/07/12 03:24:03;;;;;;;1999.90;999.90;;;18.70;99.90;;;;;;5155829;27;20038;-74
2023/07/12 03:26:29;;;;;;;1999.90;999.90;;;18.70;99.90;;;;;;5155312;27;20053;-74
2023/07/12 03:28:56;;;;;;;1999.90;999.90;;;18.70;99.90;;;;;;5155281;27;20125;-74
2023/07/12 03:31:22;;;;;;;1999.90;999.90;;;18.70;99.90;;;;;;5137875;27;20381;-74
2023/07/12 03:33:48;;;;;;;1999.90;999.90;;;18.70;99.90;;;;;;5155463;27;20046;-73
2023/07/12 03:36:14;;;;;;;1999.90;999.90;;;18.70;99.90;;;;;;5137044;27;20055;-74
2023/07/12 03:38:40;;;;;;;1999.90;999.90;;;18.70;99.90;;;;;;5155488;27;20061;-73
2023/07/12 03:41:08;;;;;;;1999.90;999.90;;;18.70;99.90;;;;;;5138063;27;20432;-74
2023/07/12 03:43:34;;;;;;;1999.90;999.90;;;18.70;99.90;;;;;;5137401;27;20103;-75
2023/07/12 03:46:01;;;;;;;1999.90;999.90;;;18.70;99.90;;;;;;5155410;27;20049;-74
2023/07/12 03:48:26;;;;;;;1999.90;999.90;;;18.70;99.90;;;;;;5155452;27;20047;-73
2023/07/12 03:50:55;;;;;;;1999.90;999.90;;;18.70;99.90;;;;;;5119898;27;20049;-73
2023/07/12 03:53:22;;;;;;;1999.90;999.90;;;18.60;99.90;;;;;;5155371;27;20046;-73
2023/07/12 03:55:48;;;;;;;1999.90;999.90;;;18.60;99.90;;;;;;5137452;27;20363;-73
2023/07/12 03:58:22;;;;;;;1999.90;999.90;;;18.50;99.90;;;;;;5155400;27;20049;-74
2023/07/12 04:00:50;;;;;;;1999.90;999.90;;;18.50;99.90;;;;;;5155380;27;20047;-72
2023/07/12 04:03:17;;;;;;;1999.90;999.90;;;18.40;99.90;;;;;;5155211;27;20051;-72
2023/07/12 04:05:44;;;;;;;1999.90;999.90;;;18.40;99.90;;;;;;5155279;27;20046;-71
2023/07/12 04:08:11;;;;;;;1999.90;999.90;;;18.40;99.90;;;;;;5155511;27;20051;-71
2023/07/12 04:10:37;;;;;;;1999.90;999.90;;;18.40;99.90;;;;;;5155151;27;20061;-71
2023/07/12 04:13:04;;;;;;;1999.90;999.90;;;18.30;99.90;;;;;;5155124;27;20047;-71
2023/07/12 04:15:30;;;;;;;1999.90;999.90;;;18.30;99.90;;;;;;5155070;27;20039;-72
2023/07/12 04:17:55;;;;;;;1999.90;999.90;;;18.30;99.90;;;;;;5155075;27;20054;-72
2023/07/12 04:20:21;;;;;;;1999.90;999.90;;;18.30;99.90;;;;;;5155083;27;20039;-71
2023/07/12 04:22:51;;;;;;;1999.90;999.90;;;18.30;99.90;;;;;;5137073;27;20050;-71
2023/07/12 04:25:18;;;;;;;1999.90;999.90;;;18.30;99.90;;;;;;5136782;27;20050;-73
2023/07/12 04:27:44;;;;;;;1999.90;999.90;;;18.30;99.90;;;;;;5155865;27;20049;-73
2023/07/12 04:30:15;;;;;;;1999.90;999.90;;;18.20;99.90;;;;;;5154667;27;20482;-71
2023/07/12 04:32:41;;;;;;;1999.90;999.90;;;18.30;99.90;;;;;;5155502;27;20038;-70
2023/07/12 04:35:08;;;;;;;1999.90;999.90;;;18.30;99.90;;;;;;5154795;27;20129;-71
2023/07/12 04:37:34;;;;;;;1999.90;999.90;;;18.20;99.90;;;;;;5154842;27;20062;-70
2023/07/12 04:40:00;;;;;;;1999.90;999.90;;;18.30;99.90;;;;;;5158888;27;20055;-71
2023/07/12 04:42:26;;;;;;;1999.90;999.90;;;18.20;99.90;;;;;;5159289;27;20061;-70
2023/07/12 04:44:52;;;;;;;1999.90;999.90;;;18.30;99.90;;;;;;5158948;27;20518;-71
2023/07/12 04:47:18;;;;;;;1999.90;999.90;;;18.20;99.90;;;;;;5158684;27;20505;-72
2023/07/12 04:49:44;;;;;;;1999.90;999.90;;;18.20;99.90;;;;;;5158855;27;20054;-72
2023/07/12 04:52:12;;;;;;;1999.90;999.90;;;18.20;99.90;;;;;;5141105;27;20544;-72
2023/07/12 04:54:42;;;;;;;1999.90;999.90;;;18.20;99.90;;;;;;5123309;27;20146;-70
2023/07/12 04:57:08;;;;;;;1999.90;999.90;;;18.20;99.90;;;;;;5159000;27;20603;-71
2023/07/12 04:59:35;;;;;;;1999.90;999.90;;;18.20;99.90;;;;;;5158742;27;20042;-72
2023/07/12 05:02:01;;;;;;;1999.90;999.90;;;18.20;99.90;;;;;;5158647;27;20086;-71
2023/07/12 05:04:27;;;;;;;1999.90;999.90;;;18.20;99.90;;;;;;5158477;27;20082;-71
2023/07/12 05:06:52;;;;;;;1999.90;999.90;;;18.10;99.90;;;;;;5159075;27;20046;-72
2023/07/12 05:09:20;;;;;;;1999.90;999.90;;;18.10;99.90;;;;;;5158466;27;20053;-72
2023/07/12 05:11:50;;;;;;;1999.90;999.90;;;18.20;99.90;;;;;;5139912;27;20056;-71
2023/07/12 05:14:16;;;;;;;1999.90;999.90;;;18.20;99.90;;;;;;5122753;27;20050;-70
2023/07/12 05:16:41;;;;;;;1999.90;999.90;;;18.20;99.90;;;;;;5158651;27;20058;-72
2023/07/12 05:19:07;;;;;;;1999.90;999.90;;;18.10;99.90;;;;;;5122693;27;20443;-73
2023/07/12 05:21:33;;;;;;;1999.90;999.90;;;18.10;99.90;;;;;;5122685;27;20043;-73
2023/07/12 05:23:58;;;;;;;1999.90;999.90;;;18.10;99.90;;;;;;5158159;27;20035;-72
2023/07/12 05:26:24;;;;;;;1999.90;999.90;;;18.10;99.90;;;;;;5159228;27;20081;-73
2023/07/12 05:28:50;;;;;;;1999.90;999.90;;;18.10;99.90;;;;;;5158338;27;20042;-73
2023/07/12 05:31:16;;;;;;;1999.90;999.90;;;18.00;99.90;;;;;;5158063;27;20172;-73
2023/07/12 05:33:45;;;;;;;1999.90;999.90;;;18.00;99.90;;;;;;5158340;27;20042;-72
2023/07/12 05:36:11;;;;;;;1999.90;999.90;;;18.00;99.90;;;;;;5158227;27;20069;-73
2023/07/12 05:38:37;;;;;;;1999.90;999.90;;;18.00;99.90;;;;;;5139148;27;20062;-73
2023/07/12 05:41:03;;;;;;;1999.90;999.90;;;18.00;99.90;;;;;;5157876;27;20379;-72
2023/07/12 05:43:29;;;;;;;1999.90;999.90;;;18.00;99.90;;;;;;5158070;27;20043;-72
2023/07/12 05:45:58;;;;;;;1999.90;999.90;;;18.00;99.90;;;;;;5139263;27;20474;-72
2023/07/12 05:48:25;;;;;;;1999.90;999.90;;;18.00;99.90;;;;;;5157664;27;20042;-73
2023/07/12 05:50:52;;;;;;;1999.90;999.90;;;18.00;99.90;;;;;;5156492;27;20042;-72
2023/07/12 05:53:18;;;;;;;1999.90;999.90;;;18.00;99.90;;;;;;5139258;27;20111;-72
2023/07/12 05:55:44;;;;;;;1999.90;999.90;;;18.10;99.90;;;;;;5158390;27;20050;-70
2023/07/12 05:58:09;;;;;;;1999.90;999.90;;;18.10;99.90;;;;;;5158042;27;20527;-73
2023/07/12 06:00:35;;;;;;;1999.90;999.90;;;18.10;99.90;;;;;;5157478;27;20380;-72
2023/07/12 06:03:01;;;;;;;1999.90;999.90;;;18.10;99.90;;;;;;5157473;27;20056;-72
2023/07/12 06:05:27;;;;;;;1999.90;999.90;;;18.10;99.90;;;;;;5157272;27;20470;-72
2023/07/12 06:07:52;;;;;;;1999.90;999.90;;;18.10;99.90;;;;;;5157844;27;20054;-72
2023/07/12 06:10:18;;;;;;;1999.90;999.90;;;18.20;99.90;;;;;;5122706;27;20042;-73
2023/07/12 06:12:44;;;;;;;1999.90;999.90;;;18.20;99.90;;;;;;5157220;27;20034;-71
2023/07/12 06:15:10;;;;;;;1999.90;999.90;;;18.20;99.90;;;;;;5157085;27;20493;-71
2023/07/12 06:17:36;;;;;;;1999.90;999.90;;;18.20;99.90;;;;;;5157669;27;20046;-71
2023/07/12 06:20:03;;;;;;;1999.90;999.90;;;18.20;99.90;;;;;;5138255;27;20129;-71
2023/07/12 06:22:29;;;;;;;1999.90;999.90;;;18.20;99.90;;;;;;5156815;27;20502;-71
2023/07/12 06:24:54;;;;;;;1999.90;999.90;;;18.20;99.90;;;;;;5157237;27;20072;-72
2023/07/12 06:27:20;;;;;;;1999.90;999.90;;;18.20;99.90;;;;;;5156949;27;20478;-72
2023/07/12 06:29:47;;;;;;;1999.90;999.90;;;18.20;99.90;;;;;;5138208;27;20042;-71
2023/07/12 06:32:13;;;;;;;1999.90;999.90;;;18.30;99.90;;;;;;5157396;27;20076;-72
2023/07/12 06:34:39;;;;;;;1999.90;999.90;;;18.30;99.90;;;;;;5156623;27;20035;-71
2023/07/12 06:37:05;;;;;;;1999.90;999.90;;;18.30;99.90;;;;;;5138424;27;20047;-70
2023/07/12 06:39:33;;;;;;;1999.90;999.90;;;18.30;99.90;;;;;;5139064;27;20046;-71
2023/07/12 06:41:59;;;;;;;1999.90;999.90;;;18.30;99.90;;;;;;5156682;27;20047;-71
2023/07/12 06:44:24;;;;;;;1999.90;999.90;;;18.40;99.90;;;;;;5138181;27;20118;-72
2023/07/12 06:46:50;;;;;;;1999.90;999.90;;;18.30;99.90;;;;;;5157104;27;20054;-72
2023/07/12 06:49:16;;;;;;;1999.90;999.90;;;18.30;99.90;;;;;;5137661;27;20050;-71
2023/07/12 06:51:46;;;;;;;1999.90;999.90;;;18.40;99.90;;;;;;5156472;27;20086;-71
2023/07/12 06:54:15;;;;;;;1999.90;999.90;;;18.40;99.90;;;;;;5156301;27;20093;-69
2023/07/12 06:56:42;;;;;;;1999.90;999.90;;;18.50;99.90;;;;;;5137761;27;20078;-70
2023/07/12 06:59:09;;;;;;;1999.90;999.90;;;18.50;99.90;;;;;;5156263;27;20478;-72
2023/07/12 07:01:36;;;;;;;1999.90;999.90;;;18.50;99.90;;;;;;5156403;27;20066;-68
2023/07/12 07:04:02;;;;;;;1999.90;999.90;;;18.50;99.90;;;;;;5156229;27;20038;-71
2023/07/12 07:06:27;;;;;;;1999.90;999.90;;;18.50;99.90;;;;;;5156145;27;20081;-71
2023/07/12 07:08:53;;;;;;;1999.90;999.90;;;18.50;99.90;;;;;;5156635;27;20082;-71
2023/07/12 07:11:19;;;;;;;1999.90;999.90;;;18.60;99.90;;;;;;5156096;27;20069;-72
2023/07/12 07:13:45;;;;;;;1999.90;999.90;;;18.60;99.90;;;;;;5155981;27;20043;-71
2023/07/12 07:16:11;;;;;;;1999.90;999.90;;;18.80;99.90;;;;;;5156500;27;20043;-70
2023/07/12 07:18:36;;;;;;;1999.90;999.90;;;18.80;99.90;;;;;;5137937;27;20486;-71
2023/07/12 07:21:03;;;;;;;1999.90;999.90;;;18.80;99.90;;;;;;5138329;27;20050;-70
2023/07/12 07:23:29;;;;;;;1999.90;999.90;;;18.80;99.90;;;;;;5138031;27;20049;-69
2023/07/12 07:26:05;;;;;;;1999.90;999.90;;;18.80;99.90;;;;;;5155810;27;20043;-69
2023/07/12 07:28:31;;;;;;;1999.90;999.90;;;18.80;99.90;;;;;;5156362;27;20046;-70
2023/07/12 07:30:57;;;;;;;1999.90;999.90;;;18.80;99.90;;;;;;5155560;27;20499;-70
2023/07/12 07:33:24;;;;;;;1999.90;999.90;;;18.80;99.90;;;;;;5137317;27;20046;-68
2023/07/12 07:35:50;;;;;;;1999.90;999.90;;;18.90;99.90;;;;;;5156351;27;20049;-69
2023/07/12 07:38:15;;;;;;;1999.90;999.90;;;18.90;99.90;;;;;;5155631;27;20138;-68
2023/07/12 07:40:42;;;;;;;1999.90;999.90;;;19.00;99.90;;;;;;5156351;27;20050;-69
2023/07/12 07:43:13;;;;;;;1999.90;999.90;;;19.00;99.90;;;;;;5155744;27;20514;-68
2023/07/12 07:45:41;;;;;;;1999.90;999.90;;;19.00;99.90;;;;;;5155482;27;20041;-68
2023/07/12 07:48:07;;;;;;;1999.90;999.90;;;19.10;99.90;;;;;;5138156;27;20347;-64
2023/07/12 07:50:32;;;;;;;1999.90;999.90;;;19.10;99.90;;;;;;5155606;27;20054;-67
2023/07/12 07:52:58;;;;;;;1999.90;999.90;;;19.00;99.90;;;;;;5155789;27;20081;-67
2023/07/12 07:55:26;;;;;;;1999.90;999.90;;;19.00;99.90;;;;;;5156399;27;20493;-68
2023/07/12 07:57:52;;;;;;;1999.90;999.90;;;19.00;99.90;;;;;;5155686;27;20478;-67
2023/07/12 08:00:18;;;;;;;1999.90;999.90;;;19.10;99.90;;;;;;5155429;27;20054;-67
2023/07/12 08:02:43;;;;;;;1999.90;999.90;;;19.20;99.90;;;;;;5155387;27;20047;-66
2023/07/12 08:05:11;;;;;;;1999.90;999.90;;;19.20;99.90;;;;;;5155308;27;20111;-68
2023/07/12 08:07:42;;;;;;;1999.90;999.90;;;19.20;99.90;;;;;;5136629;27;20578;-69
2023/07/12 08:10:12;;;;;;;1999.90;999.90;;;19.30;99.90;;;;;;5155350;27;20417;-68
2023/07/12 08:12:37;;;;;;;1999.90;999.90;;;19.30;99.90;;;;;;5154960;27;20525;-69
2023/07/12 08:15:04;;;;;;;1999.90;999.90;;;19.40;99.90;;;;;;5158972;27;20043;-67
2023/07/12 08:17:30;;;;;;;1999.90;999.90;;;19.40;99.90;;;;;;5141112;27;20042;-70
2023/07/12 08:19:56;;;;;;;1999.90;999.90;;;19.40;99.90;;;;;;5141266;27;20063;-69
2023/07/12 08:22:23;;;;;;;1999.90;999.90;;;19.40;99.90;;;;;;5159531;27;20084;-68
2023/07/12 08:24:48;;;;;;;1999.90;999.90;;;19.40;99.90;;;;;;5159555;27;20043;-69
2023/07/12 08:27:16;;;;;;;1999.90;999.90;;;19.40;99.90;;;;;;5141252;27;20053;-68
2023/07/12 08:29:45;;;;;;;1999.90;999.90;;;19.40;99.90;;;;;;5159397;27;20085;-67
2023/07/12 08:32:11;;;;;;;1999.90;999.90;;;19.50;99.90;;;;;;5159854;27;20080;-67
2023/07/12 08:34:37;;;;;;;1999.90;999.90;;;19.50;99.90;;;;;;5141044;27;20054;-68
2023/07/12 08:37:04;;;;;;;1999.90;999.90;;;19.50;99.90;;;;;;5140959;27;20135;-68
2023/07/12 08:39:30;;;;;;;1999.90;999.90;;;19.50;99.90;;;;;;5158664;27;20061;-68
2023/07/12 08:41:57;;;;;;;1999.90;999.90;;;19.40;99.90;;;;;;5159984;27;20047;-68
2023/07/12 08:44:23;;;;;;;1999.90;999.90;;;19.40;99.90;;;;;;5159114;27;20034;-68
2023/07/12 08:46:58;;;;;;;1999.90;999.90;;;19.30;99.90;;;;;;5159035;27;20039;-69
2023/07/12 08:49:25;;;;;;;1999.90;999.90;;;19.30;99.90;;;;;;5141049;27;20049;-80
2023/07/12 08:51:57;;;;;;;1999.90;999.90;;;19.20;99.90;;;;;;5141079;27;20103;-73
2023/07/12 08:54:33;;;;;;;1999.90;999.90;;;19.20;99.90;;;;;;5159468;27;20050;-68
2023/07/12 08:57:21;;;;;;;1999.90;999.90;;;19.20;99.90;;;;;;5158860;27;20126;-69
2023/07/12 09:00:10;;;;;;;1999.90;999.90;;;19.20;99.90;;;;;;5141020;27;20082;-70
2023/07/12 09:02:36;;;;;;;1999.90;999.90;;;19.30;99.90;;;;;;5159089;27;20046;-70
2023/07/12 09:05:15;;;;;;;1999.90;999.90;;;19.40;99.90;;;;;;5141253;27;20066;-69
2023/07/12 09:08:09;;;;;;;1999.90;999.90;;;19.50;99.90;;;;;;5140358;27;20133;-68
2023/07/12 09:10:44;;;;;;;1999.90;999.90;;;19.50;99.90;;;;;;5159252;27;20054;-73
2023/07/12 09:13:11;;;;;;;1999.90;999.90;;;19.50;99.90;;;;;;5158635;27;20107;-72
2023/07/12 09:15:42;;;;;;;1999.90;999.90;;;19.50;99.90;;;;;;5158361;27;20550;-73
2023/07/12 09:18:09;;;;;;;1999.90;999.90;;;19.50;99.90;;;;;;5159073;27;20046;-74
2023/07/12 09:20:40;;;;;;;1999.90;999.90;;;19.50;99.90;;;;;;5157966;27;20042;-71
2023/07/12 09:23:09;;;;;;;1999.90;999.90;;;19.40;99.90;;;;;;5139820;27;20390;-71
2023/07/12 09:25:38;;;;;;;1999.90;999.90;;;19.40;99.90;;;;;;5158270;27;20046;-72
2023/07/12 09:28:12;;;;;;;1999.90;999.90;;;19.40;99.90;;;;;;5157761;27;20490;-73
2023/07/12 09:30:37;;;;;;;1999.90;999.90;;;19.30;99.90;;;;;;5158038;27;20061;-73
2023/07/12 09:33:05;;;;;;;1999.90;999.90;;;19.20;99.90;;;;;;5138764;27;20482;-74
2023/07/12 09:35:45;;;;;;;1999.90;999.90;;;19.10;99.90;;;;;;5157363;27;20039;-70
2023/07/12 09:38:14;;;;;;;1999.90;999.90;;;19.00;99.90;;;;;;5157258;27;20058;-72
2023/07/12 09:40:46;;;;;;;1999.90;999.90;;;19.00;99.90;;;;;;5157980;27;20046;-73
2023/07/12 09:43:22;;;;;;;1999.90;999.90;;;19.00;99.90;;;;;;5157538;27;20078;-72
2023/07/12 09:46:05;;;;;;;1999.90;999.90;;;19.00;99.90;;;;;;5158102;27;20119;-72
2023/07/12 09:48:31;;;;;;;1999.90;999.90;;;19.00;99.90;;;;;;5157417;27;20049;-72
2023/07/12 09:51:19;;;;;;;1999.90;999.90;;;19.00;99.90;;;;;;5157346;27;20129;-73
2023/07/12 09:54:20;;;;;;;1999.90;999.90;;;19.00;99.90;;;;;;5139682;27;20101;-75
2023/07/12 09:57:05;;;;;;;1999.90;999.90;;;19.10;99.90;;;;;;5143631;27;20090;-75
2023/07/12 10:46:13;;;;;;;1999.90;999.90;;;18.80;99.90;;;;;;4984292;24;20154;-70
2023/07/12 10:48:49;;;;;;;1999.90;999.90;;;18.80;99.90;;;;;;4793436;29;20567;-69
2023/07/12 10:51:21;;;;;;;1999.90;999.90;;;18.80;99.90;;;;;;4805411;29;20061;-69
2023/07/12 10:53:49;;;;;;;1999.90;999.90;;;18.90;99.90;;;;;;4807035;29;20051;-69
2023/07/12 10:56:17;;;;;;;1999.90;999.90;;;19.00;99.90;;;;;;4807130;29;20051;-69
2023/07/12 10:58:51;;;;;;;1999.90;999.90;;;19.20;99.90;;;;;;4791038;29;20081;-69
2023/07/12 11:01:47;;;;;;;1999.90;999.90;;;19.30;99.90;;;;;;4806796;29;20051;-69
2023/07/12 11:04:30;;;;;;;1999.90;999.90;;;19.30;99.90;;;;;;4806887;29;20061;-70
2023/07/12 11:07:18;;;;;;;1999.90;999.90;;;19.40;99.90;;;;;;4807248;29;20055;-76
2023/07/12 11:09:47;;;;;;;1999.90;999.90;;;19.40;99.90;;;;;;4792092;29;20473;-76
2023/07/12 11:12:26;;;;;;;1999.90;999.90;;;19.40;99.90;;;;;;4805587;29;20047;-75
2023/07/12 11:14:53;;;;;;;1999.90;999.90;;;19.40;99.90;;;;;;4805709;29;20083;-76
2023/07/12 11:17:28;;;;;;;1999.90;999.90;;;19.40;99.90;;;;;;4805850;29;20135;-76
2023/07/12 11:20:08;;;;;;;1999.90;999.90;;;19.50;99.90;;;;;;4805701;29;20055;-79
2023/07/12 11:23:06;;;;;;;1999.90;999.90;;;19.60;99.90;;;;;;4805753;29;20105;-75
2023/07/12 11:25:36;;;;;;;1999.90;999.90;;;19.70;99.90;;;;;;4776632;29;20103;-74
2023/07/12 11:28:22;;;;;;;1999.90;999.90;;;19.80;99.90;;;;;;4823892;29;20050;-75
2023/07/12 11:31:16;;;;;;;1999.90;999.90;;;19.80;99.90;;;;;;4838150;29;20068;-75
2023/07/12 11:33:55;;;;;;;1999.90;999.90;;;19.90;99.90;;;;;;4824583;29;20495;-74
2023/07/12 11:36:28;;;;;;;1999.90;999.90;;;20.00;99.90;;;;;;4824848;29;20053;-75
2023/07/12 11:38:55;;;;;;;1999.90;999.90;;;20.10;99.90;;;;;;4823778;29;20095;-78
2023/07/12 11:41:26;;;;;;;1999.90;999.90;;;20.20;99.90;;;;;;4823817;29;20054;-76
2023/07/12 11:44:00;;;;;;;1999.90;999.90;;;20.30;99.90;;;;;;4824606;29;20067;-74
2023/07/12 11:46:33;;;;;;;1999.90;999.90;;;20.30;99.90;;;;;;4823498;29;20407;-78
2023/07/12 11:49:11;;;;;;;1999.90;999.90;;;20.40;99.90;;;;;;4823578;29;20523;-74
2023/07/12 11:51:38;;;;;;;1999.90;999.90;;;20.50;99.90;;;;;;4823643;29;20069;-75
2023/07/12 11:54:19;;;;;;;1999.90;999.90;;;20.60;99.90;;;;;;4824849;29;20534;-74
2023/07/12 11:56:47;;;;;;;1999.90;999.90;;;20.70;99.90;;;;;;4824593;29;20046;-74
2023/07/12 11:59:23;;;;;;;1999.90;999.90;;;20.80;99.90;;;;;;4838264;29;20062;-74
2023/07/12 12:01:52;;;;;;;1999.90;999.90;;;20.90;99.90;;;;;;4823422;29;20227;-73
2023/07/12 12:04:24;;;;;;;1999.90;999.90;;;21.10;99.90;;;;;;4808346;29;20050;-74
2023/07/12 12:06:53;;;;;;;1999.90;999.90;;;21.10;99.90;;;;;;4824533;29;20046;-76
2023/07/12 12:09:25;;;;;;;1999.90;999.90;;;21.20;99.90;;;;;;4809765;29;20059;-76
2023/07/12 12:11:54;;;;;;;1999.90;999.90;;;21.30;99.90;;;;;;4819121;29;20492;-75
2023/07/12 12:14:28;;;;;;;1999.90;999.90;;;21.30;99.90;;;;;;4811359;29;20058;-81
2023/07/12 12:16:56;;;;;;;1999.90;999.90;;;21.30;99.90;;;;;;4804022;29;20407;-76
2023/07/12 12:19:30;;;;;;;1999.90;999.90;;;21.30;99.90;;;;;;4803990;29;20054;-75
2023/07/12 12:22:16;;;;;;;1999.90;999.90;;;21.30;99.90;;;;;;4803895;29;20059;-75
2023/07/12 12:24:48;;;;;;;1999.90;999.90;;;21.30;99.90;;;;;;4804204;29;20066;-77
2023/07/12 12:27:18;;;;;;;1999.90;999.90;;;21.30;99.90;;;;;;4805076;29;20051;-82
2023/07/12 12:29:44;;;;;;;1999.90;999.90;;;21.40;99.90;;;;;;4804778;29;20130;-77
2023/07/12 12:32:15;;;;;;;1999.90;999.90;;;21.40;99.90;;;;;;4804765;29;20047;-77
2023/07/12 12:34:47;;;;;;;1999.90;999.90;;;21.30;99.90;;;;;;4820126;29;20487;-76
2023/07/12 12:37:22;;;;;;;1999.90;999.90;;;21.40;99.90;;;;;;4805698;29;20055;-76
2023/07/12 12:40:16;;;;;;;1999.90;999.90;;;21.40;99.90;;;;;;4818031;29;20050;-74
2023/07/12 12:42:59;;;;;;;1999.90;999.90;;;21.40;99.90;;;;;;4824544;29;20129;-74
2023/07/12 12:45:31;;;;;;;1999.90;999.90;;;21.40;99.90;;;;;;4824286;29;20477;-74
2023/07/12 12:47:57;;;;;;;1999.90;999.90;;;21.50;99.90;;;;;;4824425;29;20138;-75
2023/07/12 12:50:24;;;;;;;1999.90;999.90;;;21.60;99.90;;;;;;4823333;29;20086;-77
2023/07/12 12:52:49;;;;;;;1999.90;999.90;;;21.50;99.90;;;;;;4824293;29;20058;-74